createdAt,value
2023-09-15T00:00:05.522Z,0
2023-09-15T00:01:07.015Z,0
2023-09-15T00:02:08.636Z,0
2023-09-15T00:03:12.483Z,0
2023-09-15T00:04:12.505Z,0
2023-09-15T00:05:13.785Z,0
2023-09-15T00:06:15.176Z,0
2023-09-15T00:07:16.595Z,0
2023-09-15T00:08:17.988Z,0
2023-09-15T00:09:19.435Z,0
2023-09-15T00:10:20.877Z,0
2023-09-15T00:11:22.271Z,0
2023-09-15T00:12:23.666Z,0
2023-09-15T00:13:25.151Z,0
2023-09-15T00:14:26.633Z,0
2023-09-15T00:15:28.038Z,0
2023-09-15T00:16:29.554Z,0
2023-09-15T00:17:31.144Z,0
2023-09-15T00:18:32.395Z,0
2023-09-15T00:19:33.785Z,0
2023-09-15T00:20:35.180Z,0
2023-09-15T00:21:36.573Z,0
2023-09-15T00:22:37.968Z,0
2023-09-15T00:23:39.358Z,0
2023-09-15T00:24:40.758Z,0
2023-09-15T00:25:42.178Z,0
2023-09-15T00:26:43.584Z,0
2023-09-15T00:27:45.000Z,0
2023-09-15T00:28:46.608Z,0
2023-09-15T00:29:48.162Z,0
2023-09-15T00:30:49.564Z,0
2023-09-15T00:31:50.959Z,0
2023-09-15T00:32:52.549Z,0
2023-09-15T00:33:53.904Z,0
2023-09-15T00:34:55.293Z,0
2023-09-15T00:35:56.791Z,0
2023-09-15T00:36:58.255Z,0
2023-09-15T00:37:59.721Z,0
2023-09-15T00:39:01.107Z,0
2023-09-15T00:40:02.563Z,0
2023-09-15T00:41:04.056Z,0
2023-09-15T00:42:05.442Z,0
2023-09-15T00:43:06.874Z,0
2023-09-15T00:44:08.264Z,0
2023-09-15T00:45:09.654Z,0
2023-09-15T00:46:11.124Z,0
2023-09-15T00:47:12.545Z,0
2023-09-15T00:48:14.005Z,0
2023-09-15T00:49:15.498Z,0
2023-09-15T00:50:16.894Z,0
2023-09-15T00:51:18.292Z,0
2023-09-15T00:52:19.703Z,0
2023-09-15T00:53:21.165Z,0
2023-09-15T00:54:22.585Z,0
2023-09-15T00:55:24.031Z,0
2023-09-15T00:56:25.420Z,0
2023-09-15T00:57:26.810Z,0
2023-09-15T00:58:28.240Z,0
2023-09-15T00:59:29.633Z,0
2023-09-15T01:00:31.031Z,0
2023-09-15T01:01:32.542Z,0
2023-09-15T01:02:34.052Z,0
2023-09-15T01:03:35.633Z,0
2023-09-15T01:04:36.912Z,0
2023-09-15T01:05:38.305Z,0
2023-09-15T01:06:39.711Z,0
2023-09-15T01:07:41.079Z,0
2023-09-15T01:08:42.475Z,0
2023-09-15T01:09:43.900Z,0
2023-09-15T01:10:45.284Z,0
2023-09-15T01:11:46.678Z,0
2023-09-15T01:12:48.073Z,0
2023-09-15T01:13:49.478Z,0
2023-09-15T01:14:50.875Z,0
2023-09-15T01:15:52.361Z,0
2023-09-15T01:16:53.777Z,0
2023-09-15T01:17:55.240Z,0
2023-09-15T01:18:56.643Z,0
2023-09-15T01:19:58.034Z,0
2023-09-15T01:20:59.448Z,0
2023-09-15T01:22:00.897Z,0
2023-09-15T01:23:02.307Z,0
2023-09-15T01:24:03.701Z,0
2023-09-15T01:25:05.110Z,0
2023-09-15T01:26:06.488Z,0
2023-09-15T01:27:07.879Z,0
2023-09-15T01:28:09.318Z,0
2023-09-15T01:29:10.735Z,0
2023-09-15T01:30:12.123Z,0
2023-09-15T01:31:13.609Z,0
2023-09-15T01:32:15.041Z,0
2023-09-15T01:33:16.442Z,0
2023-09-15T01:34:17.961Z,0
2023-09-15T01:35:19.294Z,0
2023-09-15T01:36:20.691Z,0
2023-09-15T01:37:22.170Z,0
2023-09-15T01:38:23.531Z,0
2023-09-15T01:39:24.926Z,0
2023-09-15T01:40:26.379Z,0
2023-09-15T01:41:27.805Z,0
2023-09-15T01:42:29.214Z,0
2023-09-15T01:43:30.729Z,0
2023-09-15T01:44:32.126Z,0
2023-09-15T01:45:33.604Z,0
2023-09-15T01:46:35.029Z,0
2023-09-15T01:47:36.446Z,0
2023-09-15T01:48:37.837Z,0
2023-09-15T01:49:39.305Z,0
2023-09-15T01:50:40.713Z,0
2023-09-15T01:51:42.172Z,0
2023-09-15T01:52:43.585Z,0
2023-09-15T01:53:44.967Z,0
2023-09-15T01:54:46.426Z,0
2023-09-15T01:55:47.876Z,0
2023-09-15T01:56:49.243Z,0
2023-09-15T01:57:50.670Z,0
2023-09-15T01:58:52.061Z,0
2023-09-15T01:59:53.462Z,0
2023-09-15T02:00:54.970Z,0
2023-09-15T02:01:56.520Z,0
2023-09-15T02:02:58.075Z,0
2023-09-15T02:03:59.501Z,0
2023-09-15T02:05:00.917Z,0
2023-09-15T02:06:02.371Z,0
2023-09-15T02:07:03.776Z,0
2023-09-15T02:08:05.193Z,0
2023-09-15T02:09:06.584Z,0
2023-09-15T02:10:08.019Z,0
2023-09-15T02:11:09.401Z,0
2023-09-15T02:12:10.844Z,0
2023-09-15T02:13:12.268Z,0
2023-09-15T02:14:13.682Z,0
2023-09-15T02:15:15.076Z,0
2023-09-15T02:16:16.497Z,0
2023-09-15T02:17:17.902Z,0
2023-09-15T02:18:19.296Z,0
2023-09-15T02:19:20.706Z,0
2023-09-15T02:20:22.169Z,0
2023-09-15T02:21:23.573Z,0
2023-09-15T02:22:24.977Z,0
2023-09-15T02:23:26.370Z,0
2023-09-15T02:24:27.769Z,0
2023-09-15T02:25:29.225Z,0
2023-09-15T02:26:30.618Z,0
2023-09-15T02:27:32.011Z,0
2023-09-15T02:28:33.400Z,0
2023-09-15T02:29:34.790Z,0
2023-09-15T02:30:36.201Z,0
2023-09-15T02:31:37.636Z,0
2023-09-15T02:32:39.092Z,0
2023-09-15T02:33:40.479Z,0
2023-09-15T02:34:41.871Z,0
2023-09-15T02:35:43.400Z,0
2023-09-15T02:36:44.808Z,0
2023-09-15T02:37:46.214Z,0
2023-09-15T02:38:47.823Z,0
2023-09-15T02:39:49.479Z,0
2023-09-15T02:40:50.871Z,0
2023-09-15T02:41:52.275Z,0
2023-09-15T02:42:53.677Z,0
2023-09-15T02:43:55.074Z,0
2023-09-15T02:44:56.514Z,0
2023-09-15T02:45:57.958Z,0
2023-09-15T02:46:59.386Z,0
2023-09-15T02:48:00.826Z,0
2023-09-15T02:49:02.829Z,0
2023-09-15T02:50:04.240Z,0
2023-09-15T02:51:05.834Z,0
2023-09-15T02:52:07.190Z,0
2023-09-15T02:53:08.596Z,0
2023-09-15T02:54:10.050Z,0
2023-09-15T02:55:11.540Z,0
2023-09-15T02:56:12.961Z,0
2023-09-15T02:57:14.401Z,0
2023-09-15T02:58:15.848Z,0
2023-09-15T02:59:17.228Z,0
2023-09-15T03:00:18.655Z,0
2023-09-15T03:01:20.112Z,0
2023-09-15T03:02:21.511Z,0
2023-09-15T03:03:22.961Z,0
2023-09-15T03:04:24.403Z,0
2023-09-15T03:05:25.859Z,0
2023-09-15T03:06:27.456Z,0
2023-09-15T03:07:28.806Z,0
2023-09-15T03:08:30.202Z,0
2023-09-15T03:09:31.582Z,0
2023-09-15T03:10:33.016Z,0
2023-09-15T03:11:34.388Z,0
2023-09-15T03:12:35.774Z,0
2023-09-15T03:13:37.218Z,0
2023-09-15T03:14:38.606Z,0
2023-09-15T03:15:40.038Z,0
2023-09-15T03:16:41.528Z,0
2023-09-15T03:17:43.063Z,0
2023-09-15T03:18:44.480Z,0
2023-09-15T03:19:45.875Z,0
2023-09-15T03:20:47.263Z,0
2023-09-15T03:21:48.829Z,0
2023-09-15T03:22:50.115Z,0
2023-09-15T03:23:51.504Z,0
2023-09-15T03:24:52.912Z,0
2023-09-15T03:25:54.326Z,0
2023-09-15T03:26:55.722Z,0
2023-09-15T03:27:57.227Z,0
2023-09-15T03:28:58.645Z,0
2023-09-15T03:30:00.041Z,0
2023-09-15T03:31:01.536Z,0
2023-09-15T03:32:03.034Z,0
2023-09-15T03:33:04.505Z,0
2023-09-15T03:34:05.935Z,0
2023-09-15T03:35:07.312Z,0
2023-09-15T03:36:08.734Z,0
2023-09-15T03:37:12.272Z,0
2023-09-15T03:38:12.535Z,0
2023-09-15T03:39:13.923Z,0
2023-09-15T03:40:15.337Z,0
2023-09-15T03:41:16.755Z,0
2023-09-15T03:42:18.144Z,0
2023-09-15T03:43:19.666Z,0
2023-09-15T03:44:21.037Z,0
2023-09-15T03:45:22.452Z,0
2023-09-15T03:46:23.942Z,0
2023-09-15T03:47:25.329Z,0
2023-09-15T03:48:26.727Z,0
2023-09-15T03:49:28.189Z,0
2023-09-15T03:50:29.626Z,0
2023-09-15T03:51:31.009Z,0
2023-09-15T03:52:32.601Z,0
2023-09-15T03:53:33.970Z,0
2023-09-15T03:54:35.350Z,0
2023-09-15T03:55:36.797Z,0
2023-09-15T03:56:38.240Z,0
2023-09-15T03:57:39.645Z,0
2023-09-15T03:58:41.805Z,0
2023-09-15T03:59:43.321Z,0
2023-09-15T04:00:44.726Z,0
2023-09-15T04:01:46.209Z,0
2023-09-15T04:02:47.629Z,0
2023-09-15T04:03:49.133Z,0
2023-09-15T04:04:50.451Z,0
2023-09-15T04:05:51.838Z,0
2023-09-15T04:06:53.395Z,0
2023-09-15T04:07:54.892Z,0
2023-09-15T04:08:56.262Z,0
2023-09-15T04:09:57.733Z,0
2023-09-15T04:10:59.155Z,0
2023-09-15T04:12:00.567Z,0
2023-09-15T04:13:01.974Z,0
2023-09-15T04:14:03.353Z,0
2023-09-15T04:15:04.739Z,0
2023-09-15T04:16:06.259Z,0
2023-09-15T04:17:07.765Z,0
2023-09-15T04:18:09.228Z,0
2023-09-15T04:19:10.778Z,0
2023-09-15T04:20:12.169Z,0
2023-09-15T04:21:13.567Z,0
2023-09-15T04:22:14.974Z,0
2023-09-15T04:23:16.433Z,0
2023-09-15T04:24:17.773Z,0
2023-09-15T04:25:19.179Z,0
2023-09-15T04:26:20.589Z,0
2023-09-15T04:27:21.981Z,0
2023-09-15T04:28:23.479Z,0
2023-09-15T04:29:24.886Z,0
2023-09-15T04:30:26.276Z,0
2023-09-15T04:31:27.762Z,0
2023-09-15T04:32:29.185Z,0
2023-09-15T04:33:30.576Z,0
2023-09-15T04:34:31.965Z,0
2023-09-15T04:35:33.361Z,0
2023-09-15T04:36:36.250Z,0
2023-09-15T04:37:37.157Z,0
2023-09-15T04:38:38.721Z,0
2023-09-15T04:39:40.062Z,0
2023-09-15T04:40:41.458Z,0
2023-09-15T04:41:42.858Z,0
2023-09-15T04:42:44.254Z,0
2023-09-15T04:43:45.711Z,0
2023-09-15T04:44:47.100Z,0
2023-09-15T04:45:48.569Z,0
2023-09-15T04:46:50.060Z,0
2023-09-15T04:47:51.616Z,0
2023-09-15T04:48:53.054Z,0
2023-09-15T04:49:54.452Z,0
2023-09-15T04:50:55.841Z,0
2023-09-15T04:51:57.267Z,0
2023-09-15T04:52:58.652Z,0
2023-09-15T04:54:00.199Z,0
2023-09-15T04:55:01.548Z,0
2023-09-15T04:56:02.953Z,0
2023-09-15T04:57:04.352Z,0
2023-09-15T04:58:05.844Z,0
2023-09-15T04:59:07.267Z,0
2023-09-15T05:00:08.669Z,0
2023-09-15T05:01:10.180Z,0
2023-09-15T05:02:11.580Z,0
2023-09-15T05:03:12.993Z,0
2023-09-15T05:04:14.492Z,0
2023-09-15T05:05:15.925Z,0
2023-09-15T05:06:17.314Z,0
2023-09-15T05:07:18.784Z,0
2023-09-15T05:08:20.204Z,0
2023-09-15T05:09:21.843Z,0
2023-09-15T05:10:23.096Z,0
2023-09-15T05:11:24.496Z,0
2023-09-15T05:12:25.887Z,0
2023-09-15T05:13:27.430Z,0
2023-09-15T05:14:28.828Z,0
2023-09-15T05:15:30.227Z,0
2023-09-15T05:16:31.892Z,0
2023-09-15T05:17:33.365Z,0
2023-09-15T05:18:34.748Z,0
2023-09-15T05:19:36.130Z,0
2023-09-15T05:20:37.530Z,0
2023-09-15T05:21:38.968Z,0
2023-09-15T05:22:40.365Z,0
2023-09-15T05:23:41.822Z,0
2023-09-15T05:24:43.269Z,0
2023-09-15T05:25:44.663Z,0
2023-09-15T05:26:46.050Z,0
2023-09-15T05:27:47.456Z,0
2023-09-15T05:28:48.988Z,0
2023-09-15T05:29:50.618Z,0
2023-09-15T05:30:52.183Z,0
2023-09-15T05:31:53.652Z,0
2023-09-15T05:32:55.118Z,0
2023-09-15T05:33:56.630Z,0
2023-09-15T05:34:58.188Z,0
2023-09-15T05:35:59.626Z,0
2023-09-15T05:37:01.059Z,0
2023-09-15T05:38:02.469Z,0
2023-09-15T05:39:03.860Z,0
2023-09-15T05:40:05.327Z,0
2023-09-15T05:41:06.685Z,0
2023-09-15T05:42:08.179Z,0
2023-09-15T05:43:12.316Z,0
2023-09-15T05:44:12.001Z,0
2023-09-15T05:45:13.493Z,0
2023-09-15T05:46:14.997Z,0
2023-09-15T05:47:16.415Z,0
2023-09-15T05:48:17.809Z,0
2023-09-15T05:49:19.259Z,0
2023-09-15T05:50:20.670Z,0
2023-09-15T05:51:22.059Z,0
2023-09-15T05:52:23.641Z,0
2023-09-15T05:53:24.908Z,0
2023-09-15T05:54:26.305Z,0
2023-09-15T05:55:27.968Z,0
2023-09-15T05:56:29.214Z,0
2023-09-15T05:57:30.606Z,0
2023-09-15T05:58:32.046Z,0
2023-09-15T05:59:33.444Z,0
2023-09-15T06:00:34.974Z,0
2023-09-15T06:01:36.469Z,0
2023-09-15T06:02:37.884Z,0
2023-09-15T06:03:39.321Z,0
2023-09-15T06:04:40.696Z,0
2023-09-15T06:05:42.093Z,0
2023-09-15T06:06:43.556Z,0
2023-09-15T06:07:45.062Z,0
2023-09-15T06:08:46.707Z,0
2023-09-15T06:09:47.896Z,0
2023-09-15T06:10:49.375Z,0
2023-09-15T06:11:50.739Z,0
2023-09-15T06:12:52.173Z,0
2023-09-15T06:13:53.660Z,0
2023-09-15T06:14:55.050Z,0
2023-09-15T06:15:56.467Z,0
2023-09-15T06:16:58.009Z,0
2023-09-15T06:17:59.353Z,0
2023-09-15T06:19:00.771Z,0
2023-09-15T06:20:02.178Z,0
2023-09-15T06:21:03.571Z,0
2023-09-15T06:22:05.009Z,0
2023-09-15T06:23:06.416Z,0
2023-09-15T06:24:07.799Z,0
2023-09-15T06:25:09.196Z,0
2023-09-15T06:26:10.801Z,0
2023-09-15T06:27:12.149Z,0
2023-09-15T06:28:21.680Z,0
2023-09-15T06:29:15.949Z,0
2023-09-15T06:30:17.350Z,0
2023-09-15T06:31:18.925Z,0
2023-09-15T06:32:20.324Z,0
2023-09-15T06:33:21.772Z,0
2023-09-15T06:34:23.222Z,0
2023-09-15T06:35:24.607Z,0
2023-09-15T06:36:26.007Z,0
2023-09-15T06:37:27.475Z,0
2023-09-15T06:38:28.889Z,0
2023-09-15T06:39:30.337Z,0
2023-09-15T06:40:31.757Z,0
2023-09-15T06:41:33.356Z,0
2023-09-15T06:42:34.698Z,0
2023-09-15T06:43:36.285Z,0
2023-09-15T06:44:37.822Z,0
2023-09-15T06:45:39.286Z,0
2023-09-15T06:46:43.086Z,0
2023-09-15T06:47:43.145Z,0
2023-09-15T06:48:44.740Z,0
2023-09-15T06:49:46.179Z,0
2023-09-15T06:50:47.615Z,0
2023-09-15T06:51:49.005Z,0
2023-09-15T06:52:50.393Z,0
2023-09-15T06:53:51.809Z,0
2023-09-15T06:54:53.251Z,0
2023-09-15T06:55:54.648Z,0
2023-09-15T06:56:56.178Z,0
2023-09-15T06:57:57.631Z,0
2023-09-15T06:58:59.178Z,0
2023-09-15T07:00:00.583Z,0
2023-09-15T07:01:02.115Z,0
2023-09-15T07:02:03.585Z,0
2023-09-15T07:03:05.073Z,4
2023-09-15T07:04:06.515Z,0
2023-09-15T07:05:07.914Z,0
2023-09-15T07:06:09.344Z,0
2023-09-15T07:07:10.748Z,4
2023-09-15T07:08:12.168Z,0
2023-09-15T07:09:13.565Z,0
2023-09-15T07:10:14.969Z,4
2023-09-15T07:11:16.337Z,4
2023-09-15T07:12:17.725Z,4
2023-09-15T07:13:19.175Z,4
2023-09-15T07:14:20.595Z,4
2023-09-15T07:15:22.041Z,4
2023-09-15T07:16:23.560Z,4
2023-09-15T07:17:24.942Z,4
2023-09-15T07:18:26.394Z,4
2023-09-15T07:19:27.914Z,4
2023-09-15T07:20:29.329Z,4
2023-09-15T07:21:30.713Z,4
2023-09-15T07:22:32.149Z,4
2023-09-15T07:23:33.603Z,4
2023-09-15T07:24:35.103Z,4
2023-09-15T07:25:36.595Z,4
2023-09-15T07:26:37.994Z,4
2023-09-15T07:27:39.460Z,4
2023-09-15T07:28:40.808Z,8
2023-09-15T07:29:42.198Z,8
2023-09-15T07:30:43.653Z,8
2023-09-15T07:31:45.118Z,8
2023-09-15T07:32:46.523Z,8
2023-09-15T07:33:48.126Z,4
2023-09-15T07:34:49.649Z,8
2023-09-15T07:35:51.127Z,8
2023-09-15T07:36:52.519Z,8
2023-09-15T07:37:53.916Z,8
2023-09-15T07:38:55.356Z,8
2023-09-15T07:39:56.787Z,8
2023-09-15T07:40:58.152Z,4
2023-09-15T07:41:59.604Z,4
2023-09-15T07:43:01.045Z,8
2023-09-15T07:44:02.424Z,8
2023-09-15T07:45:03.871Z,8
2023-09-15T07:46:05.313Z,8
2023-09-15T07:47:07.919Z,4
2023-09-15T07:48:09.274Z,8
2023-09-15T07:49:10.714Z,8
2023-09-15T07:50:12.132Z,8
2023-09-15T07:51:13.521Z,8
2023-09-15T07:52:17.077Z,4
2023-09-15T07:53:17.285Z,8
2023-09-15T07:54:18.681Z,8
2023-09-15T07:55:20.156Z,8
2023-09-15T07:56:21.529Z,12
2023-09-15T07:57:22.972Z,8
2023-09-15T07:58:24.469Z,8
2023-09-15T07:59:25.799Z,12
2023-09-15T08:00:27.187Z,8
2023-09-15T08:01:28.623Z,12
2023-09-15T08:02:30.125Z,12
2023-09-15T08:03:31.857Z,12
2023-09-15T08:04:33.262Z,12
2023-09-15T08:05:34.801Z,12
2023-09-15T08:06:36.170Z,16
2023-09-15T08:07:37.599Z,16
2023-09-15T08:08:38.988Z,16
2023-09-15T08:09:40.385Z,16
2023-09-15T08:10:41.783Z,16
2023-09-15T08:11:43.174Z,16
2023-09-15T08:12:44.564Z,16
2023-09-15T08:13:46.370Z,12
2023-09-15T08:14:47.404Z,16
2023-09-15T08:15:48.801Z,16
2023-09-15T08:16:50.332Z,16
2023-09-15T08:17:52.147Z,16
2023-09-15T08:18:54.170Z,16
2023-09-15T08:19:55.555Z,16
2023-09-15T08:20:56.943Z,16
2023-09-15T08:21:58.391Z,16
2023-09-15T08:22:59.768Z,16
2023-09-15T08:24:01.154Z,16
2023-09-15T08:25:02.569Z,12
2023-09-15T08:26:04.045Z,12
2023-09-15T08:27:05.615Z,12
2023-09-15T08:28:08.008Z,12
2023-09-15T08:29:09.394Z,8
2023-09-15T08:30:10.840Z,12
2023-09-15T08:31:12.248Z,12
2023-09-15T08:32:13.694Z,8
2023-09-15T08:33:15.304Z,12
2023-09-15T08:34:16.763Z,12
2023-09-15T08:35:18.173Z,8
2023-09-15T08:36:19.569Z,8
2023-09-15T08:37:21.042Z,8
2023-09-15T08:38:22.451Z,8
2023-09-15T08:39:23.842Z,8
2023-09-15T08:40:25.280Z,8
2023-09-15T08:41:26.655Z,16
2023-09-15T08:42:28.053Z,16
2023-09-15T08:43:31.055Z,16
2023-09-15T08:44:32.027Z,16
2023-09-15T08:45:33.392Z,16
2023-09-15T08:46:34.929Z,12
2023-09-15T08:47:36.282Z,12
2023-09-15T08:48:37.660Z,12
2023-09-15T08:49:39.177Z,20
2023-09-15T08:50:40.702Z,16
2023-09-15T08:51:42.083Z,20
2023-09-15T08:52:43.540Z,16
2023-09-15T08:53:44.978Z,12
2023-09-15T08:54:46.524Z,12
2023-09-15T08:55:47.926Z,12
2023-09-15T08:56:49.318Z,12
2023-09-15T08:57:50.763Z,12
2023-09-15T08:58:52.162Z,16
2023-09-15T08:59:54.658Z,12
2023-09-15T09:00:55.125Z,12
2023-09-15T09:01:56.591Z,12
2023-09-15T09:02:58.160Z,16
2023-09-15T09:04:00.038Z,16
2023-09-15T09:05:01.913Z,12
2023-09-15T09:06:03.906Z,12
2023-09-15T09:07:05.312Z,8
2023-09-15T09:08:06.699Z,12
2023-09-15T09:09:08.094Z,12
2023-09-15T09:10:09.563Z,8
2023-09-15T09:11:10.980Z,12
2023-09-15T09:12:12.371Z,8
2023-09-15T09:13:15.934Z,8
2023-09-15T09:14:17.570Z,12
2023-09-15T09:15:19.033Z,8
2023-09-15T09:16:20.450Z,8
2023-09-15T09:17:21.876Z,8
2023-09-15T09:18:23.272Z,8
2023-09-15T09:19:24.798Z,8
2023-09-15T09:20:26.253Z,8
2023-09-15T09:21:27.682Z,8
2023-09-15T09:22:29.346Z,8
2023-09-15T09:23:30.828Z,8
2023-09-15T09:24:32.219Z,8
2023-09-15T09:25:33.619Z,8
2023-09-15T09:26:35.043Z,8
2023-09-15T09:27:36.446Z,12
2023-09-15T09:28:37.849Z,8
2023-09-15T09:29:39.272Z,8
2023-09-15T09:30:40.748Z,12
2023-09-15T09:31:42.187Z,12
2023-09-15T09:32:43.594Z,12
2023-09-15T09:33:44.966Z,12
2023-09-15T09:34:48.020Z,12
2023-09-15T09:35:48.796Z,12
2023-09-15T09:36:50.198Z,24
2023-09-15T09:37:51.575Z,20
2023-09-15T09:38:52.976Z,20
2023-09-15T09:39:54.362Z,32
2023-09-15T09:40:55.926Z,28
2023-09-15T09:41:57.320Z,32
2023-09-15T09:42:58.714Z,28
2023-09-15T09:44:00.104Z,28
2023-09-15T09:45:01.534Z,16
2023-09-15T09:46:02.957Z,28
2023-09-15T09:47:04.372Z,32
2023-09-15T09:48:05.960Z,32
2023-09-15T09:49:07.409Z,40
2023-09-15T09:50:08.818Z,36
2023-09-15T09:51:10.228Z,32
2023-09-15T09:52:11.692Z,28
2023-09-15T09:53:13.192Z,28
2023-09-15T09:54:16.502Z,32
2023-09-15T09:55:16.973Z,16
2023-09-15T09:56:18.426Z,32
2023-09-15T09:57:19.830Z,36
2023-09-15T09:58:21.208Z,36
2023-09-15T09:59:22.690Z,32
2023-09-15T10:00:24.268Z,32
2023-09-15T10:01:25.739Z,36
2023-09-15T10:02:27.193Z,36
2023-09-15T10:03:28.719Z,32
2023-09-15T10:04:30.221Z,32
2023-09-15T10:05:31.625Z,32
2023-09-15T10:06:33.037Z,36
2023-09-15T10:07:34.424Z,36
2023-09-15T10:08:35.819Z,36
2023-09-15T10:09:37.232Z,36
2023-09-15T10:10:38.657Z,36
2023-09-15T10:11:40.052Z,36
2023-09-15T10:12:41.475Z,40
2023-09-15T10:13:42.846Z,40
2023-09-15T10:14:44.241Z,36
2023-09-15T10:15:45.761Z,36
2023-09-15T10:16:47.197Z,36
2023-09-15T10:17:48.645Z,36
2023-09-15T10:18:50.646Z,40
2023-09-15T10:19:52.310Z,40
2023-09-15T10:20:53.716Z,40
2023-09-15T10:21:55.138Z,40
2023-09-15T10:22:56.533Z,40
2023-09-15T10:23:57.930Z,36
2023-09-15T10:24:59.336Z,40
2023-09-15T10:26:00.753Z,36
2023-09-15T10:27:02.216Z,40
2023-09-15T10:28:03.604Z,40
2023-09-15T10:29:05.012Z,40
2023-09-15T10:30:06.434Z,40
2023-09-15T10:31:09.725Z,40
2023-09-15T10:32:10.697Z,40
2023-09-15T10:33:12.161Z,44
2023-09-15T10:34:13.559Z,40
2023-09-15T10:35:14.957Z,40
2023-09-15T10:36:16.591Z,40
2023-09-15T10:37:17.783Z,40
2023-09-15T10:38:19.173Z,44
2023-09-15T10:39:20.614Z,44
2023-09-15T10:40:22.042Z,44
2023-09-15T10:41:23.503Z,44
2023-09-15T10:42:25.008Z,44
2023-09-15T10:43:28.140Z,40
2023-09-15T10:44:28.772Z,44
2023-09-15T10:45:30.723Z,44
2023-09-15T10:46:32.159Z,44
2023-09-15T10:47:33.644Z,44
2023-09-15T10:48:35.005Z,44
2023-09-15T10:49:36.421Z,44
2023-09-15T10:50:37.816Z,44
2023-09-15T10:51:39.244Z,48
2023-09-15T10:52:40.779Z,44
2023-09-15T10:53:42.177Z,44
2023-09-15T10:54:43.664Z,44
2023-09-15T10:55:45.085Z,48
2023-09-15T10:56:46.480Z,44
2023-09-15T10:57:47.875Z,44
2023-09-15T10:58:49.852Z,44
2023-09-15T10:59:51.553Z,48
2023-09-15T11:00:53.028Z,48
2023-09-15T11:01:54.405Z,44
2023-09-15T11:02:55.873Z,48
2023-09-15T11:03:57.243Z,36
2023-09-15T11:04:58.648Z,36
2023-09-15T11:06:00.065Z,48
2023-09-15T11:07:01.606Z,44
2023-09-15T11:08:03.060Z,28
2023-09-15T11:09:04.544Z,44
2023-09-15T11:10:05.944Z,44
2023-09-15T11:11:07.404Z,44
2023-09-15T11:12:08.855Z,52
2023-09-15T11:13:10.289Z,40
2023-09-15T11:14:11.677Z,52
2023-09-15T11:15:13.143Z,20
2023-09-15T11:16:14.586Z,40
2023-09-15T11:17:16.037Z,20
2023-09-15T11:18:17.479Z,48
2023-09-15T11:19:18.895Z,48
2023-09-15T11:20:20.288Z,48
2023-09-15T11:21:21.748Z,40
2023-09-15T11:22:23.120Z,48
2023-09-15T11:23:24.511Z,48
2023-09-15T11:24:25.922Z,48
2023-09-15T11:25:27.313Z,48
2023-09-15T11:26:28.911Z,48
2023-09-15T11:27:30.353Z,44
2023-09-15T11:28:31.750Z,48
2023-09-15T11:29:33.243Z,48
2023-09-15T11:30:36.357Z,36
2023-09-15T11:31:37.891Z,36
2023-09-15T11:32:39.421Z,36
2023-09-15T11:33:41.012Z,40
2023-09-15T11:34:42.391Z,36
2023-09-15T11:35:43.777Z,52
2023-09-15T11:36:45.206Z,48
2023-09-15T11:37:46.760Z,48
2023-09-15T11:38:48.302Z,48
2023-09-15T11:39:49.851Z,52
2023-09-15T11:40:51.252Z,48
2023-09-15T11:41:52.636Z,48
2023-09-15T11:42:54.044Z,44
2023-09-15T11:43:55.432Z,52
2023-09-15T11:44:56.944Z,48
2023-09-15T11:45:58.338Z,48
2023-09-15T11:46:59.741Z,52
2023-09-15T11:48:01.213Z,48
2023-09-15T11:49:03.145Z,48
2023-09-15T11:50:06.679Z,48
2023-09-15T11:51:05.967Z,48
2023-09-15T11:52:07.340Z,48
2023-09-15T11:53:08.742Z,48
2023-09-15T11:54:10.143Z,52
2023-09-15T11:55:11.514Z,48
2023-09-15T11:56:12.909Z,48
2023-09-15T11:57:14.352Z,48
2023-09-15T11:58:15.740Z,48
2023-09-15T11:59:17.133Z,52
2023-09-15T12:00:18.645Z,52
2023-09-15T12:01:20.136Z,40
2023-09-15T12:02:21.701Z,36
2023-09-15T12:03:23.243Z,20
2023-09-15T12:04:24.984Z,24
2023-09-15T12:05:26.153Z,36
2023-09-15T12:06:27.649Z,16
2023-09-15T12:07:29.052Z,16
2023-09-15T12:08:30.448Z,52
2023-09-15T12:09:31.935Z,52
2023-09-15T12:10:33.345Z,20
2023-09-15T12:11:34.726Z,16
2023-09-15T12:12:36.186Z,24
2023-09-15T12:13:37.598Z,48
2023-09-15T12:14:38.973Z,48
2023-09-15T12:15:40.397Z,52
2023-09-15T12:16:41.841Z,52
2023-09-15T12:17:43.225Z,48
2023-09-15T12:18:44.636Z,48
2023-09-15T12:19:46.091Z,48
2023-09-15T12:20:47.455Z,48
2023-09-15T12:21:48.852Z,48
2023-09-15T12:22:50.254Z,52
2023-09-15T12:23:51.789Z,48
2023-09-15T12:24:53.328Z,48
2023-09-15T12:25:54.718Z,48
2023-09-15T12:26:56.118Z,48
2023-09-15T12:27:57.505Z,48
2023-09-15T12:28:58.904Z,48
2023-09-15T12:30:00.306Z,52
2023-09-15T12:31:01.800Z,48
2023-09-15T12:32:03.170Z,52
2023-09-15T12:33:04.655Z,52
2023-09-15T12:34:06.116Z,48
2023-09-15T12:35:07.672Z,52
2023-09-15T12:36:09.097Z,48
2023-09-15T12:37:10.557Z,52
2023-09-15T12:38:11.958Z,52
2023-09-15T12:39:13.615Z,48
2023-09-15T12:40:15.101Z,52
2023-09-15T12:41:16.489Z,48
2023-09-15T12:42:17.931Z,48
2023-09-15T12:43:19.416Z,48
2023-09-15T12:44:20.863Z,48
2023-09-15T12:45:22.441Z,52
2023-09-15T12:46:23.999Z,40
2023-09-15T12:47:25.626Z,44
2023-09-15T12:49:42.496Z,44
2023-09-15T12:50:43.886Z,40
2023-09-15T12:51:45.364Z,40
2023-09-15T12:52:46.816Z,32
2023-09-15T12:53:48.468Z,24
2023-09-15T12:54:49.969Z,36
2023-09-15T12:55:51.353Z,44
2023-09-15T12:56:52.739Z,36
2023-09-15T12:57:54.128Z,28
2023-09-15T12:58:55.527Z,32
2023-09-15T12:59:56.922Z,28
2023-09-15T13:00:58.318Z,32
2023-09-15T13:01:59.853Z,24
2023-09-15T13:03:01.379Z,20
2023-09-15T13:04:03.092Z,24
2023-09-15T13:05:04.786Z,28
2023-09-15T13:06:06.405Z,40
2023-09-15T13:07:07.740Z,48
2023-09-15T13:08:09.180Z,44
2023-09-15T13:09:10.610Z,44
2023-09-15T13:10:12.055Z,48
2023-09-15T13:11:13.421Z,48
2023-09-15T13:12:14.832Z,48
2023-09-15T13:13:16.226Z,48
2023-09-15T13:14:17.588Z,44
2023-09-15T13:15:19.006Z,44
2023-09-15T13:16:20.480Z,44
2023-09-15T13:17:21.859Z,48
2023-09-15T13:18:23.256Z,44
2023-09-15T13:19:24.648Z,44
2023-09-15T13:20:26.062Z,44
2023-09-15T13:21:27.666Z,48
2023-09-15T13:22:28.997Z,44
2023-09-15T13:23:30.374Z,44
2023-09-15T13:24:31.823Z,48
2023-09-15T13:25:33.263Z,44
2023-09-15T13:26:34.652Z,48
2023-09-15T13:27:36.122Z,48
2023-09-15T13:28:37.505Z,48
2023-09-15T13:29:38.964Z,48
2023-09-15T13:30:40.471Z,48
2023-09-15T13:31:41.872Z,44
2023-09-15T13:32:43.316Z,44
2023-09-15T13:33:44.793Z,44
2023-09-15T13:34:46.218Z,44
2023-09-15T13:35:47.667Z,48
2023-09-15T13:36:49.055Z,48
2023-09-15T13:37:50.507Z,48
2023-09-15T13:38:51.900Z,48
2023-09-15T13:39:53.290Z,44
2023-09-15T13:40:54.725Z,44
2023-09-15T13:41:56.129Z,40
2023-09-15T13:42:57.532Z,44
2023-09-15T13:43:58.987Z,44
2023-09-15T13:45:00.445Z,48
2023-09-15T13:46:03.315Z,20
2023-09-15T13:47:04.272Z,36
2023-09-15T13:48:05.702Z,44
2023-09-15T13:49:07.189Z,44
2023-09-15T13:50:08.666Z,44
2023-09-15T13:51:10.194Z,44
2023-09-15T13:52:11.623Z,48
2023-09-15T13:53:14.705Z,44
2023-09-15T13:54:14.562Z,48
2023-09-15T13:55:16.009Z,48
2023-09-15T13:56:17.432Z,44
2023-09-15T13:57:27.674Z,44
2023-09-15T13:58:21.251Z,48
2023-09-15T13:59:22.659Z,32
2023-09-15T14:00:24.059Z,20
2023-09-15T14:01:25.505Z,32
2023-09-15T14:02:27.323Z,48
2023-09-15T14:03:28.398Z,48
2023-09-15T14:04:29.833Z,48
2023-09-15T14:05:31.226Z,48
2023-09-15T14:06:32.628Z,48
2023-09-15T14:07:34.004Z,48
2023-09-15T14:08:35.392Z,44
2023-09-15T14:09:36.818Z,44
2023-09-15T14:10:38.249Z,32
2023-09-15T14:11:39.647Z,48
2023-09-15T14:12:41.109Z,48
2023-09-15T14:13:42.514Z,48
2023-09-15T14:14:43.950Z,48
2023-09-15T14:15:48.033Z,48
2023-09-15T14:16:47.724Z,44
2023-09-15T14:17:49.170Z,48
2023-09-15T14:18:51.120Z,44
2023-09-15T14:19:52.067Z,44
2023-09-15T14:20:53.466Z,44
2023-09-15T14:21:54.857Z,40
2023-09-15T14:22:56.255Z,32
2023-09-15T14:23:57.705Z,48
2023-09-15T14:24:59.091Z,40
2023-09-15T14:26:02.201Z,40
2023-09-15T14:27:02.904Z,24
2023-09-15T14:28:04.337Z,24
2023-09-15T14:29:05.786Z,16
2023-09-15T14:30:07.192Z,16
2023-09-15T14:31:08.605Z,36
2023-09-15T14:32:10.007Z,16
2023-09-15T14:33:11.459Z,16
2023-09-15T14:34:12.882Z,20
2023-09-15T14:35:14.325Z,12
2023-09-15T14:36:15.809Z,16
2023-09-15T14:37:17.210Z,16
2023-09-15T14:38:18.607Z,16
2023-09-15T14:39:20.070Z,12
2023-09-15T14:40:21.566Z,8
2023-09-15T14:41:22.940Z,12
2023-09-15T14:42:24.374Z,8
2023-09-15T14:43:25.764Z,12
2023-09-15T14:44:27.213Z,12
2023-09-15T14:45:28.821Z,12
2023-09-15T14:46:30.350Z,12
2023-09-15T14:47:31.816Z,8
2023-09-15T14:48:33.259Z,12
2023-09-15T14:49:34.650Z,12
2023-09-15T14:50:36.202Z,12
2023-09-15T14:51:37.645Z,12
2023-09-15T14:52:39.034Z,12
2023-09-15T14:53:40.559Z,12
2023-09-15T14:54:41.929Z,12
2023-09-15T14:55:43.372Z,16